EPPK weather

Poznań-Kobylnica Airport
Poznań, Greater Poland, Poland

Public forecast

Using degrees Celsius for public forecast. Weather courtesy of forecast.io.

METAR (pilot weather report)

Closest report is Poznań-Ławica Airport, 8.0 nm (14.8 km) W. Retrieved 2019/06/25 08:30 UTC (22 minutes ago):

EPPO 250830Z 14010KT CAVOK 29/12 Q1025

TAF (pilot weather forecast)

Closest forecast is Poznań-Ławica Airport, 8.0 nm (14.8 km) W. Retrieved 2019/06/25 06:33 UTC (2 hours ago):

TAF EPPO 250530Z 2506/2606 10005KT CAVOK BECMG 2509/2512 17010KT